createdAt,value
2023-04-27T00:02:44.545Z,22.45
2023-04-27T00:05:57.312Z,27.43
2023-04-27T00:09:10.103Z,25.63
2023-04-27T00:12:22.615Z,23.65
2023-04-27T00:15:35.056Z,31.43
2023-04-27T00:18:47.131Z,35.13
2023-04-27T00:22:00.661Z,32.03
2023-04-27T00:25:14.968Z,33.20
2023-04-27T00:28:27.550Z,32.05
2023-04-27T00:31:39.690Z,31.98
2023-04-27T00:34:52.480Z,33.60
2023-04-27T00:38:04.580Z,33.03
2023-04-27T00:41:18.644Z,32.38
2023-04-27T00:44:34.715Z,32.83
2023-04-27T00:47:48.762Z,35.88
2023-04-27T00:51:01.175Z,33.23
2023-04-27T00:54:13.713Z,33.10
2023-04-27T00:57:26.631Z,32.08
2023-04-27T01:00:41.882Z,34.80
2023-04-27T01:03:55.132Z,38.30
2023-04-27T01:07:08.455Z,31.10
2023-04-27T01:10:20.675Z,33.85
2023-04-27T01:13:33.272Z,34.28
2023-04-27T01:16:47.551Z,34.95
2023-04-27T01:20:02.744Z,34.90
2023-04-27T01:23:16.770Z,34.53
2023-04-27T01:26:28.964Z,30.93
2023-04-27T01:29:41.451Z,36.88
2023-04-27T01:32:54.775Z,35.10
2023-04-27T01:36:07.241Z,35.58
2023-04-27T01:39:19.306Z,40.25
2023-04-27T01:42:31.450Z,32.25
2023-04-27T01:45:43.599Z,31.73
2023-04-27T01:48:55.657Z,36.08
2023-04-27T01:52:08.160Z,34.23
2023-04-27T01:55:20.621Z,40.40
2023-04-27T01:58:34.022Z,31.50
2023-04-27T02:01:46.274Z,30.90
2023-04-27T02:04:58.745Z,35.88
2023-04-27T02:08:11.953Z,36.35
2023-04-27T02:11:24.257Z,30.18
2023-04-27T02:14:36.383Z,33.83
2023-04-27T02:17:48.648Z,38.05
2023-04-27T02:21:01.106Z,37.48
2023-04-27T02:24:15.547Z,33.73
2023-04-27T02:27:29.978Z,36.98
2023-04-27T02:30:44.923Z,36.58
2023-04-27T02:33:58.151Z,31.80
2023-04-27T02:37:10.685Z,31.03
2023-04-27T02:40:22.986Z,35.98
2023-04-27T02:43:35.145Z,34.90
2023-04-27T02:46:49.347Z,33.98
2023-04-27T02:50:02.209Z,36.03
2023-04-27T02:53:16.743Z,36.40
2023-04-27T02:56:28.961Z,35.85
2023-04-27T02:59:41.193Z,32.78
2023-04-27T03:02:53.716Z,28.08
2023-04-27T03:06:06.121Z,29.90
2023-04-27T03:09:18.412Z,31.33
2023-04-27T03:12:30.686Z,36.98
2023-04-27T03:15:46.069Z,34.25
2023-04-27T03:18:58.217Z,30.75
2023-04-27T03:22:10.586Z,39.35
2023-04-27T03:25:22.946Z,37.23
2023-04-27T03:28:35.295Z,29.75
2023-04-27T03:31:47.593Z,36.78
2023-04-27T03:34:59.765Z,33.30
2023-04-27T03:38:11.982Z,31.53
2023-04-27T03:41:24.153Z,31.28
2023-04-27T03:44:37.701Z,33.75
2023-04-27T03:47:50.048Z,34.18
2023-04-27T03:51:03.784Z,38.45
2023-04-27T03:54:16.103Z,33.75
2023-04-27T03:57:28.254Z,33.85
2023-04-27T04:00:41.106Z,31.13
2023-04-27T04:03:53.546Z,33.08
2023-04-27T04:07:06.226Z,39.18
2023-04-27T04:10:19.163Z,31.60
2023-04-27T04:13:33.205Z,29.33
2023-04-27T04:16:45.415Z,29.93
2023-04-27T04:19:58.532Z,31.30
2023-04-27T04:23:12.482Z,32.05
2023-04-27T04:26:25.094Z,31.68
2023-04-27T04:29:37.816Z,30.28
2023-04-27T04:32:50.149Z,25.43
2023-04-27T04:36:03.473Z,33.45
2023-04-27T04:39:16.778Z,21.45
2023-04-27T04:42:29.527Z,30.15
2023-04-27T04:45:42.357Z,29.13
2023-04-27T04:48:55.379Z,30.28
2023-04-27T04:52:08.344Z,29.40
2023-04-27T04:55:20.764Z,28.25
2023-04-27T04:58:32.824Z,26.95
2023-04-27T05:01:45.152Z,27.68
2023-04-27T05:04:57.958Z,28.25
2023-04-27T05:08:11.151Z,28.63
2023-04-27T05:11:23.470Z,31.03
2023-04-27T05:14:35.603Z,30.45
2023-04-27T05:17:47.881Z,32.98
2023-04-27T05:21:00.028Z,30.35
2023-04-27T05:24:13.524Z,32.45
2023-04-27T05:27:25.668Z,29.60
2023-04-27T05:30:37.939Z,32.45
2023-04-27T05:33:50.352Z,30.13
2023-04-27T05:37:02.558Z,30.45
2023-04-27T05:40:17.375Z,29.13
2023-04-27T05:43:30.205Z,29.75
2023-04-27T05:46:43.171Z,33.78
2023-04-27T05:49:59.398Z,31.30
2023-04-27T05:53:12.027Z,33.97
2023-04-27T05:56:24.404Z,33.93
2023-04-27T05:59:36.564Z,35.23
2023-04-27T06:02:48.957Z,31.30
2023-04-27T06:06:04.912Z,34.38
2023-04-27T06:09:17.011Z,28.55
2023-04-27T06:12:29.219Z,35.75
2023-04-27T06:15:41.766Z,38.03
2023-04-27T06:18:56.633Z,36.00
2023-04-27T06:22:08.773Z,30.00
2023-04-27T06:25:20.815Z,26.93
2023-04-27T06:28:34.211Z,30.73
2023-04-27T06:31:47.610Z,27.45
2023-04-27T06:34:59.809Z,23.40
2023-04-27T06:38:12.622Z,23.35
2023-04-27T06:41:24.809Z,22.60
2023-04-27T06:44:36.877Z,23.35
2023-04-27T06:47:49.271Z,25.23
2023-04-27T06:51:01.603Z,20.63
2023-04-27T06:54:14.516Z,23.60
2023-04-27T06:57:27.381Z,33.75
2023-04-27T07:00:40.508Z,37.63
2023-04-27T07:03:53.089Z,22.15
2023-04-27T07:07:05.946Z,22.05
2023-04-27T07:10:18.557Z,21.50
2023-04-27T07:13:30.984Z,16.38
2023-04-27T07:16:44.526Z,18.68
2023-04-27T07:19:56.688Z,18.63
2023-04-27T07:23:09.342Z,24.45
2023-04-27T07:26:21.759Z,20.80
2023-04-27T07:29:34.310Z,20.28
2023-04-27T07:32:48.474Z,15.48
2023-04-27T07:36:02.347Z,18.25
2023-04-27T07:39:15.053Z,16.48
2023-04-27T07:42:28.009Z,15.65
2023-04-27T07:45:41.867Z,21.08
2023-04-27T07:48:55.582Z,18.78
2023-04-27T07:52:08.712Z,17.60
2023-04-27T07:55:21.745Z,13.13
2023-04-27T07:58:33.847Z,13.53
2023-04-27T08:01:45.947Z,12.18
2023-04-27T08:04:58.938Z,11.55
2023-04-27T08:08:11.962Z,9.65
2023-04-27T08:11:24.140Z,11.53
2023-04-27T08:14:36.749Z,15.73
2023-04-27T08:17:49.374Z,12.30
2023-04-27T08:21:01.925Z,14.05
2023-04-27T08:24:15.001Z,13.13
2023-04-27T08:27:27.182Z,12.00
2023-04-27T08:30:39.755Z,15.23
2023-04-27T08:33:52.633Z,8.73
2023-04-27T08:37:04.737Z,11.20
2023-04-27T08:40:20.128Z,9.60
2023-04-27T08:43:39.907Z,10.73
2023-04-27T08:46:52.220Z,11.63
2023-04-27T08:50:05.826Z,11.58
2023-04-27T08:53:27.028Z,12.60
2023-04-27T08:56:39.778Z,10.00
2023-04-27T09:00:06.497Z,14.55
2023-04-27T09:03:29.049Z,13.50
2023-04-27T09:06:42.054Z,12.48
2023-04-27T09:09:54.740Z,11.88
2023-04-27T09:13:07.749Z,12.68
2023-04-27T09:16:21.218Z,12.55
2023-04-27T09:19:36.772Z,10.90
2023-04-27T09:22:55.294Z,8.53
2023-04-27T09:26:09.915Z,8.90
2023-04-27T09:29:22.145Z,13.90
2023-04-27T09:32:34.420Z,9.85
2023-04-27T09:35:48.322Z,9.98
2023-04-27T09:39:01.159Z,11.20
2023-04-27T09:42:16.084Z,12.75
2023-04-27T09:45:29.172Z,11.40
2023-04-27T09:48:43.236Z,9.70
2023-04-27T09:51:56.243Z,8.05
2023-04-27T09:55:13.543Z,12.68
2023-04-27T09:59:07.964Z,12.90
2023-04-27T10:02:25.602Z,9.88
2023-04-27T10:06:01.392Z,11.75
2023-04-27T10:09:15.311Z,11.00
2023-04-27T10:12:32.713Z,17.03
2023-04-27T10:19:02.707Z,12.28
2023-04-27T10:22:17.186Z,10.38
2023-04-27T10:25:33.442Z,9.88
2023-04-27T10:28:48.606Z,11.20
2023-04-27T10:32:00.874Z,10.93
2023-04-27T10:35:15.045Z,11.25
2023-04-27T10:38:33.430Z,10.28
2023-04-27T10:41:55.431Z,8.50
2023-04-27T10:45:08.409Z,7.65
2023-04-27T10:48:22.032Z,11.35
2023-04-27T10:51:34.367Z,6.90
2023-04-27T10:54:51.360Z,7.30
2023-04-27T11:01:14.954Z,15.80
2023-04-27T11:04:27.996Z,103.28
2023-04-27T11:07:40.312Z,10.60
2023-04-27T11:10:54.847Z,10.85
2023-04-27T11:14:08.256Z,6.98
2023-04-27T11:17:21.018Z,12.08
2023-04-27T11:20:34.130Z,11.93
2023-04-27T11:23:47.366Z,10.43
2023-04-27T11:27:04.450Z,10.45
2023-04-27T11:30:27.474Z,9.73
2023-04-27T11:33:40.033Z,10.15
2023-04-27T11:40:24.479Z,20.75
2023-04-27T11:46:50.849Z,14.88
2023-04-27T11:50:05.194Z,9.03
2023-04-27T11:53:18.817Z,9.23
2023-04-27T11:56:35.261Z,11.40
2023-04-27T11:59:47.710Z,12.18
2023-04-27T12:02:59.903Z,12.23
2023-04-27T12:06:31.856Z,12.65
2023-04-27T12:09:26.890Z,11.60
2023-04-27T12:12:39.101Z,13.23
2023-04-27T12:15:51.303Z,15.93
2023-04-27T12:19:03.921Z,11.43
2023-04-27T12:22:16.573Z,18.38
2023-04-27T12:25:29.273Z,14.43
2023-04-27T12:28:41.720Z,8.98
2023-04-27T12:31:54.113Z,11.98
2023-04-27T12:35:06.593Z,9.08
2023-04-27T12:38:18.617Z,10.90
2023-04-27T12:41:31.005Z,11.23
2023-04-27T12:44:43.174Z,13.60
2023-04-27T12:48:03.559Z,8.58
2023-04-27T12:54:13.368Z,10.50
2023-04-27T12:57:26.949Z,9.03
2023-04-27T13:00:39.451Z,10.75
2023-04-27T13:03:53.596Z,9.18
2023-04-27T13:07:06.738Z,9.83
2023-04-27T13:10:19.284Z,10.95
2023-04-27T13:13:32.046Z,11.10
2023-04-27T13:16:44.844Z,8.80
2023-04-27T13:19:57.167Z,10.18
2023-04-27T13:23:11.332Z,12.50
2023-04-27T13:26:24.423Z,9.43
2023-04-27T13:29:36.650Z,13.10
2023-04-27T13:32:49.497Z,9.43
2023-04-27T13:36:02.754Z,11.28
2023-04-27T13:39:15.122Z,8.25
2023-04-27T13:42:29.887Z,9.83
2023-04-27T13:45:42.882Z,11.90
2023-04-27T13:48:54.945Z,13.68
2023-04-27T13:52:08.743Z,11.05
2023-04-27T13:55:23.480Z,11.35
2023-04-27T14:07:38.678Z,12.18
2023-04-27T14:10:53.331Z,9.88
2023-04-27T14:14:07.072Z,12.95
2023-04-27T14:17:19.260Z,11.58
2023-04-27T14:20:31.932Z,12.78
2023-04-27T14:56:15.274Z,10.98
2023-04-27T14:59:27.486Z,11.25
2023-04-27T15:02:40.045Z,11.70
2023-04-27T15:05:52.392Z,9.75
2023-04-27T15:09:04.825Z,10.60
2023-04-27T15:12:17.954Z,9.30
2023-04-27T15:15:30.572Z,8.20
2023-04-27T15:18:43.474Z,10.50
2023-04-27T15:21:55.671Z,15.05
2023-04-27T15:25:08.781Z,15.48
2023-04-27T15:28:20.975Z,12.50
2023-04-27T15:31:33.152Z,9.53
2023-04-27T15:34:46.292Z,8.45
2023-04-27T15:37:59.481Z,11.25
2023-04-27T15:41:12.321Z,11.30
2023-04-27T15:44:24.448Z,9.73
2023-04-27T15:47:36.752Z,10.10
2023-04-27T15:50:53.364Z,13.08
2023-04-27T15:54:06.849Z,8.13
2023-04-27T15:57:19.463Z,9.60
2023-04-27T16:00:32.289Z,7.70
2023-04-27T16:03:44.567Z,9.30
2023-04-27T16:06:57.034Z,12.30
2023-04-27T16:10:11.552Z,9.55
2023-04-27T16:13:24.076Z,7.63
2023-04-27T16:16:36.258Z,7.68
2023-04-27T16:19:49.635Z,10.23
2023-04-27T16:23:01.835Z,23.70
2023-04-27T16:26:14.033Z,7.43
2023-04-27T16:29:26.268Z,7.18
2023-04-27T16:32:38.483Z,9.70
2023-04-27T16:35:50.962Z,11.05
2023-04-27T16:39:05.263Z,10.83
2023-04-27T16:42:19.650Z,11.50
2023-04-27T16:45:31.766Z,13.03
2023-04-27T16:48:44.206Z,19.55
2023-04-27T16:51:57.218Z,10.88
2023-04-27T16:55:11.980Z,7.93
2023-04-27T17:01:24.890Z,9.98
2023-04-27T17:04:40.435Z,15.43
2023-04-27T17:07:53.534Z,14.15
2023-04-27T17:11:07.448Z,9.68
2023-04-27T17:14:20.911Z,9.03
2023-04-27T17:17:39.204Z,7.55
2023-04-27T17:20:51.580Z,11.85
2023-04-27T17:24:03.986Z,10.93
2023-04-27T17:27:16.680Z,9.78
2023-04-27T17:30:29.131Z,10.75
2023-04-27T17:33:43.824Z,12.70
2023-04-27T17:36:57.088Z,9.15
2023-04-27T17:40:11.189Z,11.98
2023-04-27T17:43:23.282Z,13.40
2023-04-27T17:46:35.465Z,9.80
2023-04-27T17:49:47.694Z,7.63
2023-04-27T17:52:59.923Z,11.23
2023-04-27T17:56:13.141Z,11.10
2023-04-27T17:59:25.474Z,13.65
2023-04-27T18:02:45.282Z,11.13
2023-04-27T18:05:57.821Z,9.40
2023-04-27T18:09:10.557Z,12.73
2023-04-27T18:12:22.863Z,15.73
2023-04-27T18:15:35.140Z,11.00
2023-04-27T18:18:47.588Z,14.38
2023-04-27T18:21:59.756Z,13.40
2023-04-27T18:25:14.700Z,9.65
2023-04-27T18:28:26.770Z,15.88
2023-04-27T18:31:38.880Z,18.98
2023-04-27T18:34:50.990Z,20.35
2023-04-27T18:38:03.804Z,16.48
2023-04-27T18:41:16.524Z,16.48
2023-04-27T18:44:28.777Z,13.78
2023-04-27T18:47:41.015Z,18.10
2023-04-27T18:50:53.354Z,12.45
2023-04-27T18:57:18.571Z,18.38
2023-04-27T19:00:32.229Z,19.93
2023-04-27T19:03:45.507Z,13.65
2023-04-27T19:06:57.788Z,14.88
2023-04-27T19:10:13.974Z,14.85
2023-04-27T19:13:26.282Z,18.33
2023-04-27T19:16:38.672Z,16.28
2023-04-27T19:19:51.412Z,14.83
2023-04-27T19:23:03.633Z,22.50
2023-04-27T19:26:15.873Z,18.93
2023-04-27T19:29:30.806Z,11.68
2023-04-27T19:32:43.938Z,19.70
2023-04-27T19:35:58.497Z,18.68
2023-04-27T19:39:11.487Z,24.63
2023-04-27T19:42:25.258Z,19.60
2023-04-27T19:45:38.997Z,12.88
2023-04-27T19:48:51.508Z,17.03
2023-04-27T19:52:04.032Z,17.38
2023-04-27T19:55:17.667Z,17.25
2023-04-27T19:58:29.842Z,23.80
2023-04-27T20:01:42.455Z,21.58
2023-04-27T20:04:54.994Z,16.03
2023-04-27T20:08:08.008Z,17.98
2023-04-27T20:11:20.922Z,19.35
2023-04-27T20:14:35.426Z,15.15
2023-04-27T20:17:47.822Z,13.58
2023-04-27T20:21:03.427Z,19.93
2023-04-27T20:24:16.628Z,17.45
2023-04-27T20:27:29.471Z,22.55
2023-04-27T20:30:41.397Z,24.40
2023-04-27T20:33:54.051Z,22.83
2023-04-27T20:37:06.210Z,23.73
2023-04-27T20:40:21.949Z,17.63
2023-04-27T20:43:34.095Z,17.10
2023-04-27T20:46:46.484Z,17.18
2023-04-27T20:49:58.580Z,14.03
2023-04-27T20:53:10.690Z,18.13
2023-04-27T20:56:23.179Z,17.83
2023-04-27T20:59:35.671Z,19.83
2023-04-27T21:02:48.701Z,27.63
2023-04-27T21:06:01.030Z,21.48
2023-04-27T21:09:13.304Z,21.80
2023-04-27T21:12:25.654Z,19.05
2023-04-27T21:15:37.989Z,18.93
2023-04-27T21:18:50.163Z,25.33
2023-04-27T21:22:02.686Z,25.13
2023-04-27T21:25:16.527Z,23.90
2023-04-27T21:28:28.642Z,27.55
2023-04-27T21:31:41.176Z,29.03
2023-04-27T21:34:53.266Z,20.23
2023-04-27T21:38:05.667Z,20.58
2023-04-27T21:41:17.777Z,20.80
2023-04-27T21:44:29.966Z,21.35
2023-04-27T21:47:42.399Z,22.00
2023-04-27T21:50:54.790Z,18.90
2023-04-27T21:54:06.865Z,18.23
2023-04-27T21:57:20.034Z,28.60
2023-04-27T22:00:33.730Z,22.93
2023-04-27T22:03:46.034Z,20.50
2023-04-27T22:06:58.396Z,23.48
2023-04-27T22:10:12.341Z,22.65
2023-04-27T22:13:24.439Z,23.02
2023-04-27T22:16:36.913Z,23.58
2023-04-27T22:19:49.402Z,56.33
2023-04-27T22:23:01.769Z,20.90
2023-04-27T22:26:14.018Z,25.05
2023-04-27T22:29:26.091Z,19.43
2023-04-27T22:32:38.534Z,23.83
2023-04-27T22:35:51.009Z,19.48
2023-04-27T22:39:03.288Z,17.73
2023-04-27T22:42:15.432Z,26.30
2023-04-27T22:45:27.419Z,26.13
2023-04-27T22:48:39.562Z,21.05
2023-04-27T22:51:51.848Z,30.75
2023-04-27T22:55:03.944Z,23.05
2023-04-27T22:58:15.873Z,22.60
2023-04-27T23:01:27.832Z,21.60
2023-04-27T23:04:41.476Z,22.55
2023-04-27T23:07:54.104Z,23.95
2023-04-27T23:11:06.400Z,28.23
2023-04-27T23:14:18.514Z,21.48
2023-04-27T23:17:32.032Z,19.05
2023-04-27T23:20:44.270Z,26.30
2023-04-27T23:23:56.320Z,29.45
2023-04-27T23:27:08.283Z,33.25
2023-04-27T23:30:21.292Z,25.50
2023-04-27T23:33:33.799Z,29.00
2023-04-27T23:36:45.967Z,23.58
2023-04-27T23:39:57.905Z,26.40
2023-04-27T23:43:10.500Z,29.93
2023-04-27T23:46:22.695Z,30.08
2023-04-27T23:49:34.776Z,30.18
2023-04-27T23:52:46.732Z,25.40
2023-04-27T23:55:58.845Z,27.43
2023-04-27T23:59:11.363Z,27.20
